createdAt,value
2018-06-11T00:00:11.954Z,97594.55
2018-06-11T00:02:47.618Z,97593.15
2018-06-11T00:05:23.267Z,97592.41
2018-06-11T00:07:58.722Z,97590.43
2018-06-11T00:10:34.988Z,97586.47
2018-06-11T00:13:10.281Z,97585.52
2018-06-11T00:15:46.093Z,97593.02
2018-06-11T00:18:21.985Z,97594.53
2018-06-11T00:20:57.776Z,97592.06
2018-06-11T00:23:33.233Z,97600.06
2018-06-11T00:26:09.057Z,97600.42
2018-06-11T00:28:44.594Z,97599.63
2018-06-11T00:31:20.342Z,97598.28
2018-06-11T00:33:56.173Z,97601.97
2018-06-11T00:36:32.111Z,97595.61
2018-06-11T00:39:11.733Z,97601.98
2018-06-11T00:41:47.445Z,97586.28
2018-06-11T00:44:23.162Z,97588.34
2018-06-11T00:46:58.839Z,97577.95
2018-06-11T00:49:35.143Z,97585.09
2018-06-11T00:52:10.912Z,97584.13
2018-06-11T00:54:46.777Z,97590.09
2018-06-11T00:57:22.253Z,97586.61
2018-06-11T00:59:58.901Z,97582.33
2018-06-11T01:02:34.145Z,97576.02
2018-06-11T01:05:09.863Z,97581.38
2018-06-11T01:07:45.921Z,97586.13
2018-06-11T01:10:21.857Z,97583.78
2018-06-11T01:12:57.172Z,97588.08
2018-06-11T01:15:32.781Z,97603.17
2018-06-11T01:18:08.669Z,97595.78
2018-06-11T01:20:44.364Z,97601.86
2018-06-11T01:23:19.929Z,97597.22
2018-06-11T01:25:56.033Z,97600.77
2018-06-11T01:28:31.579Z,97603.38
2018-06-11T01:31:07.291Z,97606.25
2018-06-11T01:33:42.827Z,97605.65
2018-06-11T01:36:18.253Z,97612.01
2018-06-11T01:38:54.062Z,97605.94
2018-06-11T01:41:29.717Z,97607.21
2018-06-11T01:44:05.457Z,97605.53
2018-06-11T01:46:41.813Z,97601.13
2018-06-11T01:49:17.835Z,97598.84
2018-06-11T01:51:53.294Z,97599.54
2018-06-11T01:54:28.843Z,97596.30
2018-06-11T01:57:04.532Z,97595.01
2018-06-11T01:59:40.529Z,97593.48
2018-06-11T02:02:16.035Z,97582.27
2018-06-11T02:04:51.743Z,97576.94
2018-06-11T02:07:27.397Z,97573.51
2018-06-11T02:10:03.169Z,97572.06
2018-06-11T02:12:39.139Z,97571.59
2018-06-11T02:15:14.891Z,97571.98
2018-06-11T02:17:50.895Z,97572.22
2018-06-11T02:20:26.373Z,97572.42
2018-06-11T02:23:02.020Z,97572.42
2018-06-11T02:25:37.765Z,97567.22
2018-06-11T02:28:13.337Z,97567.73
2018-06-11T02:30:49.011Z,97576.16
2018-06-11T02:33:25.013Z,97575.64
2018-06-11T02:36:00.337Z,97570.79
2018-06-11T02:38:35.747Z,97569.13
2018-06-11T02:41:11.448Z,97573.20
2018-06-11T02:43:47.125Z,97574.28
2018-06-11T02:46:22.652Z,97575.38
2018-06-11T02:48:58.457Z,97578.16
2018-06-11T02:51:33.925Z,97576.73
2018-06-11T02:54:09.435Z,97579.14
2018-06-11T02:56:44.901Z,97579.27
2018-06-11T02:59:20.412Z,97579.64
2018-06-11T03:01:56.276Z,97572.91
2018-06-11T03:04:31.927Z,97569.30
2018-06-11T03:07:07.494Z,97574.32
2018-06-11T03:09:43.144Z,97579.72
2018-06-11T03:12:18.680Z,97575.75
2018-06-11T03:14:54.204Z,97575.17
2018-06-11T03:17:29.673Z,97574.95
2018-06-11T03:20:05.139Z,97576.50
2018-06-11T03:22:40.971Z,97573.47
2018-06-11T03:25:16.491Z,97562.90
2018-06-11T03:27:52.166Z,97563.23
2018-06-11T03:30:32.295Z,97556.61
2018-06-11T03:33:08.136Z,97561.65
2018-06-11T03:35:43.670Z,97567.13
2018-06-11T03:38:19.200Z,97565.42
2018-06-11T03:40:55.228Z,97570.81
2018-06-11T03:43:30.936Z,97572.11
2018-06-11T03:46:06.714Z,97568.71
2018-06-11T03:48:42.694Z,97570.78
2018-06-11T03:51:18.114Z,97558.91
2018-06-11T03:53:53.908Z,97556.03
2018-06-11T03:56:29.716Z,97558.11
2018-06-11T03:59:05.321Z,97557.75
2018-06-11T04:01:41.428Z,97551.44
2018-06-11T04:04:17.220Z,97556.30
2018-06-11T04:06:52.819Z,97557.14
2018-06-11T04:09:28.215Z,97560.19
2018-06-11T04:12:03.999Z,97559.95
2018-06-11T04:14:39.578Z,97555.66
2018-06-11T04:17:15.828Z,97564.02
2018-06-11T04:19:51.276Z,97565.77
2018-06-11T04:22:26.876Z,97563.28
2018-06-11T04:25:02.878Z,97567.36
2018-06-11T04:27:38.410Z,97567.80
2018-06-11T04:30:14.172Z,97574.63
2018-06-11T04:32:49.976Z,97579.14
2018-06-11T04:35:26.303Z,97581.02
2018-06-11T04:38:02.090Z,97580.95
2018-06-11T04:40:37.810Z,97575.19
2018-06-11T04:43:13.232Z,97573.09
2018-06-11T04:45:48.790Z,97565.29
2018-06-11T04:48:24.456Z,97561.78
2018-06-11T04:51:00.231Z,97572.06
2018-06-11T04:53:35.815Z,97562.77
2018-06-11T04:56:11.643Z,97560.47
2018-06-11T04:58:50.609Z,97560.61
2018-06-11T05:01:26.551Z,97556.39
2018-06-11T05:04:02.193Z,97556.06
2018-06-11T05:06:38.490Z,97563.74
2018-06-11T05:09:14.257Z,97561.31
2018-06-11T05:11:50.215Z,97558.23
2018-06-11T05:14:25.801Z,97547.15
2018-06-11T05:17:01.760Z,97548.39
2018-06-11T05:19:37.677Z,97548.08
2018-06-11T05:22:14.006Z,97539.26
2018-06-11T05:24:49.977Z,97548.77
2018-06-11T05:27:26.018Z,97549.20
2018-06-11T05:30:01.993Z,97547.33
2018-06-11T05:32:40.818Z,97541.83
2018-06-11T05:35:16.324Z,97528.66
2018-06-11T05:37:52.147Z,97525.66
2018-06-11T05:40:28.039Z,97522.74
2018-06-11T05:43:03.925Z,97523.78
2018-06-11T05:45:39.783Z,97530.66
2018-06-11T05:48:15.755Z,97524.22
2018-06-11T05:50:51.911Z,97531.14
2018-06-11T05:53:28.265Z,97520.84
2018-06-11T05:56:04.237Z,97524.07
2018-06-11T05:58:40.464Z,97520.88
2018-06-11T06:01:16.406Z,97521.14
2018-06-11T06:03:52.741Z,97524.86
2018-06-11T06:06:30.478Z,97525.27
2018-06-11T06:09:09.188Z,97526.15
2018-06-11T06:11:46.287Z,97526.34
2018-06-11T06:14:22.835Z,97526.41
2018-06-11T06:16:59.008Z,97526.14
2018-06-11T06:19:36.450Z,97518.72
2018-06-11T06:22:14.343Z,97509.17
2018-06-11T06:24:51.695Z,97520.41
2018-06-11T06:27:27.880Z,97521.08
2018-06-11T06:30:03.727Z,97516.90
2018-06-11T06:38:52.311Z,97516.72
2018-06-11T06:41:53.050Z,97515.89
2018-06-11T06:45:07.929Z,97517.58
2018-06-11T06:51:12.379Z,97527.38
2018-06-11T06:54:05.972Z,97523.59
2018-06-11T06:56:56.097Z,97529.73
2018-06-11T06:59:44.167Z,97531.83
2018-06-11T07:02:32.200Z,97529.52
2018-06-11T07:05:22.797Z,97523.56
2018-06-11T07:08:05.777Z,97524.09
2018-06-11T07:10:46.029Z,97521.21
2018-06-11T07:13:25.311Z,97520.62
2018-06-11T07:16:11.971Z,97513.40
2018-06-11T07:18:52.477Z,97514.66
2018-06-11T07:21:30.337Z,97516.91
2018-06-11T07:24:12.642Z,97518.50
2018-06-11T07:26:54.291Z,97515.77
2018-06-11T07:29:30.973Z,97515.26
2018-06-11T07:32:09.261Z,97516.53
2018-06-11T07:34:46.906Z,97516.09
2018-06-11T07:37:25.589Z,97515.22
2018-06-11T07:40:02.530Z,97514.97
2018-06-11T07:42:44.156Z,97512.47
2018-06-11T07:45:22.484Z,97515.05
2018-06-11T07:47:59.926Z,97515.95
2018-06-11T07:50:38.722Z,97509.59
2018-06-11T07:53:20.770Z,97510.91
2018-06-11T07:55:57.703Z,97513.02
2018-06-11T07:58:35.519Z,97510.01
2018-06-11T08:01:11.827Z,97508.06
2018-06-11T08:03:50.735Z,97522.52
2018-06-11T08:06:27.520Z,97511.48
2018-06-11T08:09:05.813Z,97514.91
2018-06-11T08:11:43.883Z,97504.97
2018-06-11T08:14:21.315Z,97503.70
2018-06-11T08:16:58.306Z,97493.91
2018-06-11T08:19:35.763Z,97500.39
2018-06-11T08:22:11.970Z,97496.60
2018-06-11T08:24:51.343Z,97494.11
2018-06-11T08:27:28.195Z,97496.81
2018-06-11T08:30:06.660Z,97496.09
2018-06-11T08:32:44.277Z,97495.89
2018-06-11T08:35:35.281Z,97489.22
2018-06-11T08:38:14.922Z,97485.77
2018-06-11T08:43:58.755Z,97469.42
2018-06-11T08:47:10.387Z,97466.62
2018-06-11T08:49:51.040Z,97459.85
2018-06-11T08:52:38.404Z,97458.81
2018-06-11T08:55:14.944Z,97458.41
2018-06-11T08:57:53.470Z,97456.64
2018-06-11T09:00:30.620Z,97461.84
2018-06-11T09:03:31.662Z,97459.17
2018-06-11T09:06:09.582Z,97459.39
2018-06-11T09:08:51.106Z,97454.52
2018-06-11T09:11:34.220Z,97453.72
2018-06-11T09:14:14.659Z,97451.94
2018-06-11T09:16:54.732Z,97450.20
2018-06-11T09:19:35.258Z,97458.72
2018-06-11T09:22:14.505Z,97452.08
2018-06-11T09:25:07.917Z,97449.00
2018-06-11T09:27:56.428Z,97446.13
2018-06-11T09:30:38.770Z,97440.11
2018-06-11T09:33:21.307Z,97428.97
2018-06-11T09:36:08.549Z,97429.98
2018-06-11T09:38:55.482Z,97439.45
2018-06-11T09:41:35.370Z,97446.36
2018-06-11T09:44:17.832Z,97439.27
2018-06-11T09:46:54.418Z,97448.13
2018-06-11T09:49:35.303Z,97444.91
2018-06-11T09:52:13.926Z,97438.38
2018-06-11T09:54:54.293Z,97437.75
2018-06-11T09:57:31.111Z,97435.52
2018-06-11T10:00:08.492Z,97428.48
2018-06-11T10:02:45.666Z,97426.53
2018-06-11T10:05:22.405Z,97423.40
2018-06-11T10:07:59.552Z,97417.92
2018-06-11T10:10:37.062Z,97425.27
2018-06-11T10:13:16.310Z,97427.13
2018-06-11T10:15:54.155Z,97436.77
2018-06-11T10:18:31.741Z,97433.78
2018-06-11T10:21:08.961Z,97435.14
2018-06-11T10:23:45.892Z,97447.83
2018-06-11T10:26:22.665Z,97443.52
2018-06-11T10:28:58.805Z,97439.70
2018-06-11T10:31:35.463Z,97439.06
2018-06-11T10:34:13.717Z,97440.87
2018-06-11T10:36:50.773Z,97421.45
2018-06-11T10:39:26.817Z,97419.48
2018-06-11T10:42:02.921Z,97420.20
2018-06-11T10:44:41.943Z,97421.36
2018-06-11T10:47:20.018Z,97429.70
2018-06-11T10:49:56.889Z,97426.42
2018-06-11T10:52:34.253Z,97428.62
2018-06-11T10:55:11.851Z,97416.06
2018-06-11T10:57:49.052Z,97409.17
2018-06-11T11:00:26.074Z,97408.70
2018-06-11T11:03:03.206Z,97405.49
2018-06-11T11:05:39.853Z,97399.57
2018-06-11T11:08:18.795Z,97406.62
2018-06-11T11:11:02.647Z,97400.00
2018-06-11T11:13:42.868Z,97393.53
2018-06-11T11:16:20.571Z,97393.22
2018-06-11T11:19:09.193Z,97389.52
2018-06-11T11:21:49.848Z,97382.84
2018-06-11T11:24:35.243Z,97379.48
2018-06-11T11:27:16.043Z,97374.23
2018-06-11T11:30:06.427Z,97361.00
2018-06-11T11:33:00.557Z,97345.29
2018-06-11T11:41:59.043Z,97359.59
2018-06-11T12:07:25.213Z,97325.39
2018-06-11T12:51:22.363Z,97271.72
2018-06-11T12:54:44.261Z,97282.38
2018-06-11T12:57:27.527Z,97286.42
2018-06-11T13:03:14.601Z,97275.94
2018-06-11T13:06:12.928Z,97262.78
2018-06-11T13:09:20.571Z,97273.58
2018-06-11T13:15:01.091Z,97270.39
2018-06-11T13:24:07.500Z,97260.98
2018-06-11T13:39:24.599Z,97256.75
2018-06-11T13:42:09.637Z,97272.19
2018-06-11T13:44:55.900Z,97269.83
2018-06-11T13:47:43.030Z,97264.25
2018-06-11T13:50:49.476Z,97240.59
2018-06-11T13:56:54.057Z,97264.37
2018-06-11T13:59:47.795Z,97256.74
2018-06-11T14:02:32.604Z,97269.48
2018-06-11T14:05:16.617Z,97275.16
2018-06-11T14:10:58.426Z,97294.92
2018-06-11T14:19:33.734Z,97289.43
2018-06-11T14:22:16.927Z,97286.85
2018-06-11T14:24:54.590Z,97284.22
2018-06-11T14:30:18.217Z,97261.13
2018-06-11T14:32:55.678Z,97267.08
2018-06-11T14:35:34.352Z,97278.39
2018-06-11T14:38:13.463Z,97272.45
2018-06-11T14:40:50.893Z,97271.95
2018-06-11T14:43:33.483Z,97272.75
2018-06-11T14:46:10.090Z,97271.73
2018-06-11T14:48:46.027Z,97276.55
2018-06-11T14:51:28.557Z,97290.36
2018-06-11T14:59:31.643Z,97301.75
2018-06-11T15:02:15.190Z,97302.33
2018-06-11T15:05:10.187Z,97287.77
2018-06-11T15:07:48.766Z,97270.96
2018-06-11T15:10:25.969Z,97255.98
2018-06-11T15:13:04.093Z,97245.55
2018-06-11T15:15:41.434Z,97245.34
2018-06-11T15:18:20.416Z,97240.03
2018-06-11T15:20:58.459Z,97239.01
2018-06-11T15:23:35.388Z,97229.53
2018-06-11T15:26:12.409Z,97203.23
2018-06-11T15:28:49.860Z,97189.55
2018-06-11T15:31:26.049Z,97185.11
2018-06-11T15:34:02.723Z,97189.91
2018-06-11T15:36:38.707Z,97183.30
2018-06-11T15:39:15.087Z,97186.27
2018-06-11T15:41:52.183Z,97193.57
2018-06-11T15:44:32.517Z,97191.20
2018-06-11T15:47:13.384Z,97194.90
2018-06-11T15:52:51.551Z,97207.81
2018-06-11T15:55:27.999Z,97193.03
2018-06-11T15:58:09.384Z,97185.60
2018-06-11T16:00:48.034Z,97190.55
2018-06-11T16:03:28.708Z,97186.70
2018-06-11T16:06:06.785Z,97179.41
2018-06-11T16:08:45.251Z,97170.77
2018-06-11T16:11:24.842Z,97175.92
2018-06-11T16:14:01.109Z,97165.27
2018-06-11T16:16:38.245Z,97180.37
2018-06-11T16:19:22.170Z,97179.52
2018-06-11T16:22:04.160Z,97185.35
2018-06-11T16:24:41.618Z,97192.25
2018-06-11T16:27:18.447Z,97198.41
2018-06-11T16:29:54.410Z,97191.43
2018-06-11T16:32:30.229Z,97179.48
2018-06-11T16:35:05.982Z,97169.64
2018-06-11T16:37:41.674Z,97162.91
2018-06-11T16:40:17.274Z,97157.36
2018-06-11T16:42:53.306Z,97157.16
2018-06-11T16:45:29.171Z,97169.66
2018-06-11T16:48:05.013Z,97180.37
2018-06-11T16:50:40.701Z,97196.56
2018-06-11T16:53:16.588Z,97206.77
2018-06-11T16:55:52.926Z,97206.53
2018-06-11T16:58:28.875Z,97227.31
2018-06-11T17:01:04.309Z,97240.64
2018-06-11T17:03:39.693Z,97246.69
2018-06-11T17:06:15.263Z,97249.50
2018-06-11T17:08:50.716Z,97251.93
2018-06-11T17:11:26.391Z,97254.30
2018-06-11T17:14:01.806Z,97267.52
2018-06-11T17:16:37.321Z,97273.16
2018-06-11T17:19:12.821Z,97261.42
2018-06-11T17:21:48.291Z,97243.92
2018-06-11T17:24:23.861Z,97213.75
2018-06-11T17:26:59.530Z,97198.92
2018-06-11T17:29:35.125Z,97197.55
2018-06-11T17:32:11.428Z,97199.15
2018-06-11T17:34:51.469Z,97197.25
2018-06-11T17:37:28.256Z,97179.11
2018-06-11T17:40:03.771Z,97164.97
2018-06-11T17:42:39.178Z,97153.92
2018-06-11T17:45:14.538Z,97141.64
2018-06-11T17:47:50.012Z,97142.47
2018-06-11T17:50:25.517Z,97148.36
2018-06-11T17:53:01.123Z,97153.41
2018-06-11T17:55:36.861Z,97164.93
2018-06-11T17:58:12.821Z,97182.88
2018-06-11T18:00:48.517Z,97196.42
2018-06-11T18:03:24.872Z,97215.12
2018-06-11T18:06:00.812Z,97225.52
2018-06-11T18:08:36.337Z,97231.12
2018-06-11T18:11:12.458Z,97235.45
2018-06-11T18:13:48.661Z,97238.02
2018-06-11T18:16:24.974Z,97236.64
2018-06-11T18:19:00.830Z,97234.19
2018-06-11T18:21:36.634Z,97230.59
2018-06-11T18:24:12.647Z,97236.76
2018-06-11T18:26:47.999Z,97259.03
2018-06-11T18:29:24.431Z,97289.33
2018-06-11T18:32:04.634Z,97330.34
2018-06-11T18:34:59.180Z,97377.19
2018-06-11T18:37:38.204Z,97382.67
2018-06-11T18:40:16.237Z,97408.15
2018-06-11T18:43:01.780Z,97391.66
2018-06-11T18:45:53.918Z,97380.06
2018-06-11T18:48:36.007Z,97386.87
2018-06-11T18:51:18.481Z,97372.37
2018-06-11T18:53:58.194Z,97373.42
2018-06-11T18:56:37.229Z,97361.67
2018-06-11T18:59:28.984Z,97356.34
2018-06-11T19:02:39.268Z,97344.72
2018-06-11T19:05:34.252Z,97344.05
2018-06-11T19:08:16.036Z,97340.59
2018-06-11T19:10:56.168Z,97331.33
2018-06-11T19:13:35.929Z,97334.27
2018-06-11T19:16:12.481Z,97324.64
2018-06-11T19:19:12.401Z,97327.20
2018-06-11T19:21:51.321Z,97335.59
2018-06-11T19:24:27.925Z,97341.13
2018-06-11T19:27:04.627Z,97328.23
2018-06-11T19:29:42.281Z,97319.95
2018-06-11T19:32:19.269Z,97316.84
2018-06-11T19:35:01.057Z,97314.37
2018-06-11T19:37:38.194Z,97321.88
2018-06-11T19:40:18.200Z,97311.98
2018-06-11T19:43:07.440Z,97303.00
2018-06-11T19:45:50.699Z,97300.41
2018-06-11T19:48:43.481Z,97301.55
2018-06-11T19:51:36.198Z,97308.07
2018-06-11T19:57:19.122Z,97307.66
2018-06-11T20:03:07.766Z,97309.69
2018-06-11T20:43:39.516Z,97317.91
2018-06-11T20:46:17.410Z,97314.08
2018-06-11T20:48:57.458Z,97306.88
2018-06-11T20:51:35.629Z,97315.53
2018-06-11T20:54:12.638Z,97312.56
2018-06-11T20:56:49.563Z,97315.20
2018-06-11T20:59:25.957Z,97307.80
2018-06-11T21:02:02.233Z,97296.41
2018-06-11T21:04:39.049Z,97294.30
2018-06-11T21:07:17.164Z,97282.73
2018-06-11T21:09:55.532Z,97275.30
2018-06-11T21:12:31.758Z,97277.39
2018-06-11T21:15:09.803Z,97282.54
2018-06-11T21:17:46.801Z,97284.23
2018-06-11T21:20:27.266Z,97271.46
2018-06-11T21:23:03.976Z,97265.53
2018-06-11T21:25:40.924Z,97274.58
2018-06-11T21:28:18.681Z,97280.77
2018-06-11T21:30:55.356Z,97281.48
2018-06-11T21:33:33.243Z,97291.06
2018-06-11T21:36:13.590Z,97291.26
2018-06-11T21:38:51.978Z,97290.95
2018-06-11T21:41:33.088Z,97291.06
2018-06-11T21:44:11.544Z,97288.67
2018-06-11T21:46:55.546Z,97289.81
2018-06-11T21:49:35.176Z,97286.04
2018-06-11T21:52:14.202Z,97278.00
2018-06-11T21:54:51.079Z,97265.83
2018-06-11T21:57:29.247Z,97263.56
2018-06-11T22:00:07.885Z,97263.31
2018-06-11T22:02:46.362Z,97265.48
2018-06-11T22:05:23.113Z,97271.52
2018-06-11T22:07:58.889Z,97275.84
2018-06-11T22:10:35.158Z,97276.30
2018-06-11T22:13:14.111Z,97275.63
2018-06-11T22:15:50.855Z,97273.48
2018-06-11T22:18:27.753Z,97282.70
2018-06-11T22:21:04.414Z,97291.21
2018-06-11T22:23:43.650Z,97300.56
2018-06-11T22:26:22.250Z,97308.70
2018-06-11T22:28:59.876Z,97308.91
2018-06-11T22:31:37.066Z,97314.56
2018-06-11T22:34:13.950Z,97310.86
2018-06-11T22:36:50.786Z,97315.41
2018-06-11T22:39:28.899Z,97312.94
2018-06-11T22:42:06.370Z,97305.95
2018-06-11T22:44:43.603Z,97313.49
2018-06-11T22:47:24.843Z,97320.92
2018-06-11T22:50:03.417Z,97318.52
2018-06-11T22:52:40.865Z,97317.16
2018-06-11T22:55:19.786Z,97316.92
2018-06-11T22:57:58.242Z,97319.72
2018-06-11T23:00:36.248Z,97315.03
2018-06-11T23:03:13.876Z,97310.97
2018-06-11T23:05:50.295Z,97304.39
2018-06-11T23:08:27.549Z,97308.22
2018-06-11T23:11:04.184Z,97306.55
2018-06-11T23:13:40.044Z,97312.89
2018-06-11T23:16:15.970Z,97316.61
2018-06-11T23:18:51.620Z,97312.86
2018-06-11T23:21:27.762Z,97316.13
2018-06-11T23:24:04.088Z,97307.15
2018-06-11T23:26:40.469Z,97307.75
2018-06-11T23:29:19.167Z,97310.38
2018-06-11T23:32:01.935Z,97315.41
2018-06-11T23:34:40.758Z,97314.93
2018-06-11T23:37:17.528Z,97319.48
2018-06-11T23:39:55.237Z,97322.63
2018-06-11T23:42:33.625Z,97325.11
2018-06-11T23:45:10.822Z,97328.67
2018-06-11T23:47:47.132Z,97330.86
2018-06-11T23:50:28.058Z,97328.42
2018-06-11T23:53:05.607Z,97335.61
2018-06-11T23:55:42.150Z,97334.92
2018-06-11T23:58:19.195Z,97340.47
